Time;durP1;ratioP1;P1;durP2;ratioP2;P2;SDS_P1;SDS_P2;PMS_P1;PMS_P2;Temp;Humidity;BMP_temperature;BMP_pressure;BME280_temperature;BME280_humidity;BME280_pressure;Samples;Min_cycle;Max_cycle;Signal;HPM_P1;HPM_P2
2022/06/22 00:00:32;;;;;;;;;;;;;;;;;;1040257;28;3742;-48
2022/06/22 00:01:15;;;;;;;;;;;;;;;;;;1039157;28;4522;-50
2022/06/22 00:01:49;;;;;;;;;;;;;;;;;;1037320;28;3451;-47
2022/06/22 00:02:24;;;;;;;;;;;;;;;;;;1033461;28;3899;-49
2022/06/22 00:02:56;;;;;;;;;;;;;;;;;;1035048;28;3915;-47
2022/06/22 00:03:27;;;;;;;;;;;;;;;;;;1035079;28;2662;-48
2022/06/22 00:04:00;;;;;;;;;;;;;;;;;;1040638;28;3819;-47
2022/06/22 00:04:33;;;;;;;;;;;;;;;;;;1041293;28;2699;-50
2022/06/22 00:05:05;;;;;;;;;;;;;;;;;;1040559;28;3795;-51
2022/06/22 00:05:37;;;;;;;;;;;;;;;;;;1040055;28;2854;-47
2022/06/22 00:06:17;;;;;;;;;;;;;;;;;;1039507;28;4345;-50
2022/06/22 00:06:53;;;;;;;;;;;;;;;;;;1041460;28;2870;-48
2022/06/22 00:07:25;;;;;;;;;;;;;;;;;;1039589;28;3753;-48
2022/06/22 00:07:58;;;;;;;;;;;;;;;;;;1041069;28;3818;-48
2022/06/22 00:08:33;;;;;;;;;;;;;;;;;;1039751;28;3706;-51
2022/06/22 00:09:03;;;;;;;;;;;;;;;;;;1036341;28;3800;-46
2022/06/22 00:09:35;;;;;;;;;;;;;;;;;;1033643;28;1676;-49
2022/06/22 00:10:08;;;;;;;;;;;;;;;;;;1033266;28;4097;-48
2022/06/22 00:10:51;;;;;;;;;;;;;;;;;;1033015;28;2898;-48
2022/06/22 00:11:22;;;;;;;;;;;;;;;;;;1038789;28;3764;-47
2022/06/22 00:11:52;;;;;;;;;;;;;;;;;;1042014;28;1563;-47
2022/06/22 00:12:24;;;;;;;;;;;;;;;;;;1040404;28;3815;-50
2022/06/22 00:12:56;;;;;;;;;;;;;;;;;;1034898;28;4005;-49
2022/06/22 00:13:28;;;;;;;;;;;;;;;;;;1036959;28;2048;-49
2022/06/22 00:14:01;;;;;;;;;;;;;;;;;;1035304;28;3871;-49
2022/06/22 00:14:35;;;;;;;;;;;;;;;;;;1035828;28;3329;-50
2022/06/22 00:15:20;;;;;;;;;;;;;;;;;;1040277;28;3888;-49
2022/06/22 00:16:01;;;;;;;;;;;;;;;;;;1040037;28;3030;-50
2022/06/22 00:16:33;;;;;;;;;;;;;;;;;;1032191;28;5007;-48
2022/06/22 00:17:03;;;;;;;;;;;;;;;;;;1032856;28;3791;-48
2022/06/22 00:17:36;;;;;;;;;;;;;;;;;;1033410;28;2009;-50
2022/06/22 00:18:20;;;;;;;;;;;;;;;;;;1031751;28;3898;-49
2022/06/22 00:18:51;;;;;;;;;;;;;;;;;;1041357;28;2519;-49
2022/06/22 00:19:24;;;;;;;;;;;;;;;;;;1039152;28;3753;-52
2022/06/22 00:20:04;;;;;;;;;;;;;;;;;;1040929;28;3931;-50
2022/06/22 00:20:35;;;;;;;;;;;;;;;;;;1041159;28;3189;-50
2022/06/22 00:21:15;;;;;;;;;;;;;;;;;;1041617;28;4276;-47
2022/06/22 00:21:48;;;;;;;;;;;;;;;;;;1038372;28;3780;-48
2022/06/22 00:22:24;;;;;;;;;;;;;;;;;;1033718;28;4003;-49
2022/06/22 00:22:56;;;;;;;;;;;;;;;;;;1034110;28;3777;-49
2022/06/22 00:23:47;;;;;;;;;;;;;;;;;;1036272;28;3584;-50
2022/06/22 00:24:38;;;;;;;;;;;;;;;;;;1039100;28;3809;-49
2022/06/22 00:25:18;;;;;;;;;;;;;;;;;;1034784;28;3911;-49
2022/06/22 00:25:49;;;;;;;;;;;;;;;;;;1038811;28;2625;-51
2022/06/22 00:26:24;;;;;;;;;;;;;;;;;;1039945;28;4620;-51
2022/06/22 00:27:00;;;;;;;;;;;;;;;;;;1043316;28;3789;-51
2022/06/22 00:27:36;;;;;;;;;;;;;;;;;;1044047;28;1659;-47
2022/06/22 00:28:25;;;;;;;;;;;;;;;;;;1044544;28;3781;-49
2022/06/22 00:28:58;;;;;;;;;;;;;;;;;;1044267;28;3887;-48
2022/06/22 00:29:34;;;;;;;;;;;;;;;;;;1040688;28;2763;-49
2022/06/22 00:30:13;;;;;;;;;;;;;;;;;;1038266;28;4079;-47
2022/06/22 00:30:46;;;;;;;;;;;;;;;;;;1040900;28;3183;-47
2022/06/22 00:31:25;;;;;;;;;;;;;;;;;;1040665;28;3844;-47
2022/06/22 00:31:56;;;;;;;;;;;;;;;;;;1041034;28;3939;-49
2022/06/22 00:32:27;;;;;;;;;;;;;;;;;;1038689;28;2400;-50
2022/06/22 00:33:16;;;;;;;;;;;;;;;;;;1035033;28;3927;-51
2022/06/22 00:34:05;;;;;;;;;;;;;;;;;;1035881;28;2949;-50
2022/06/22 00:34:35;;;;;;;;;;;;;;;;;;1035312;28;3838;-50
2022/06/22 00:35:24;;;;;;;;;;;;;;;;;;1039370;28;3792;-51
2022/06/22 00:35:56;;;;;;;;;;;;;;;;;;1041648;28;2764;-48
2022/06/22 00:36:27;;;;;;;;;;;;;;;;;;1041415;28;3729;-49
2022/06/22 00:37:25;;;;;;;;;;;;;;;;;;1040737;28;3788;-49
2022/06/22 00:37:55;;;;;;;;;;;;;;;;;;1034976;28;3834;-50
2022/06/22 00:38:30;;;;;;;;;;;;;;;;;;1037327;28;2103;-52
2022/06/22 00:39:13;;;;;;;;;;;;;;;;;;1036743;28;4196;-49
2022/06/22 00:39:45;;;;;;;;;;;;;;;;;;1038951;28;3220;-48
2022/06/22 00:40:16;;;;;;;;;;;;;;;;;;1036720;28;3945;-51
2022/06/22 00:40:51;;;;;;;;;;;;;;;;;;1036197;28;3236;-47
2022/06/22 00:41:23;;;;;;;;;;;;;;;;;;1035730;28;3895;-48
2022/06/22 00:42:15;;;;;;;;;;;;;;;;;;1042143;28;3768;-50
2022/06/22 00:42:52;;;;;;;;;;;;;;;;;;1044899;28;3670;-47
2022/06/22 00:43:26;;;;;;;;;;;;;;;;;;1041441;28;3760;-49
2022/06/22 00:43:56;;;;;;;;;;;;;;;;;;1035910;28;4279;-47
2022/06/22 00:44:31;;;;;;;;;;;;;;;;;;1036028;28;3190;-49
2022/06/22 00:45:14;;;;;;;;;;;;;;;;;;1036270;28;3898;-52
2022/06/22 00:45:45;;;;;;;;;;;;;;;;;;1043611;28;2730;-48
2022/06/22 00:46:18;;;;;;;;;;;;;;;;;;1039652;28;3935;-49
2022/06/22 00:46:56;;;;;;;;;;;;;;;;;;1040790;28;3504;-49
2022/06/22 00:47:30;;;;;;;;;;;;;;;;;;1037799;28;3873;-48
2022/06/22 00:48:04;;;;;;;;;;;;;;;;;;1038189;28;3999;-47
2022/06/22 00:48:36;;;;;;;;;;;;;;;;;;1041128;28;3069;-47
2022/06/22 00:49:08;;;;;;;;;;;;;;;;;;1039201;28;3816;-52
2022/06/22 00:49:42;;;;;;;;;;;;;;;;;;1039521;28;2599;-48
2022/06/22 00:50:14;;;;;;;;;;;;;;;;;;1040084;28;4280;-51
2022/06/22 00:50:46;;;;;;;;;;;;;;;;;;1040454;28;3740;-48
2022/06/22 00:51:19;;;;;;;;;;;;;;;;;;1040616;28;3948;-50
2022/06/22 00:51:50;;;;;;;;;;;;;;;;;;1042180;28;1914;-49
2022/06/22 00:52:27;;;;;;;;;;;;;;;;;;1037421;28;3912;-48
2022/06/22 00:53:05;;;;;;;;;;;;;;;;;;1035550;28;4097;-51
2022/06/22 00:53:38;;;;;;;;;;;;;;;;;;1035903;28;3049;-51
2022/06/22 00:54:10;;;;;;;;;;;;;;;;;;1037946;28;3978;-51
2022/06/22 00:54:45;;;;;;;;;;;;;;;;;;1041924;28;2740;-49
2022/06/22 00:55:18;;;;;;;;;;;;;;;;;;1042860;28;3890;-47
2022/06/22 00:56:03;;;;;;;;;;;;;;;;;;1042673;28;3265;-50
2022/06/22 00:56:37;;;;;;;;;;;;;;;;;;1040355;28;3687;-49
2022/06/22 00:57:09;;;;;;;;;;;;;;;;;;1043486;28;3889;-50
2022/06/22 00:57:40;;;;;;;;;;;;;;;;;;1044778;28;1796;-48
2022/06/22 00:58:38;;;;;;;;;;;;;;;;;;1040918;28;3871;-55
2022/06/22 00:59:19;;;;;;;;;;;;;;;;;;1036454;28;4223;-48
2022/06/22 00:59:51;;;;;;;;;;;;;;;;;;1034977;28;3230;-49
2022/06/22 01:00:23;;;;;;;;;;;;;;;;;;1030472;28;4641;-51
2022/06/22 01:00:54;;;;;;;;;;;;;;;;;;1034938;28;1671;-52
2022/06/22 01:01:26;;;;;;;;;;;;;;;;;;1034928;28;3900;-47
2022/06/22 01:02:15;;;;;;;;;;;;;;;;;;1031206;28;3875;-49
2022/06/22 01:02:50;;;;;;;;;;;;;;;;;;1028357;28;3665;-48
2022/06/22 01:03:24;;;;;;;;;;;;;;;;;;1031626;28;3885;-48
2022/06/22 01:04:03;;;;;;;;;;;;;;;;;;1035808;28;2729;-49
2022/06/22 01:04:39;;;;;;;;;;;;;;;;;;1033897;28;3717;-48
2022/06/22 01:05:20;;;;;;;;;;;;;;;;;;1031423;28;3805;-52
2022/06/22 01:05:56;;;;;;;;;;;;;;;;;;1033425;28;3236;-52
2022/06/22 01:06:38;;;;;;;;;;;;;;;;;;1032630;28;3728;-48
2022/06/22 01:07:14;;;;;;;;;;;;;;;;;;1031178;28;3802;-48
2022/06/22 01:07:54;;;;;;;;;;;;;;;;;;1032191;28;2946;-47
2022/06/22 01:08:31;;;;;;;;;;;;;;;;;;1031452;28;3652;-52
2022/06/22 01:09:02;;;;;;;;;;;;;;;;;;1032438;28;4423;-49
2022/06/22 01:09:37;;;;;;;;;;;;;;;;;;1032272;28;2509;-50
2022/06/22 01:10:21;;;;;;;;;;;;;;;;;;1031505;28;4398;-49
2022/06/22 01:10:54;;;;;;;;;;;;;;;;;;1032546;28;3290;-48
2022/06/22 01:12:30;;;;;;;;;;;;;;;;;;1030954;28;3998;-47
2022/06/22 01:13:06;;;;;;;;;;;;;;;;;;1032724;28;3889;-48
2022/06/22 01:13:44;;;;;;;;;;;;;;;;;;1033530;28;2267;-51
2022/06/22 01:14:18;;;;;;;;;;;;;;;;;;1031618;28;4304;-49
2022/06/22 01:14:54;;;;;;;;;;;;;;;;;;1033416;28;2367;-48
2022/06/22 01:15:24;;;;;;;;;;;;;;;;;;1031084;28;3722;-48
2022/06/22 01:15:56;;;;;;;;;;;;;;;;;;1032312;28;3908;-48
2022/06/22 01:16:28;;;;;;;;;;;;;;;;;;1032955;28;1290;-49
2022/06/22 01:16:59;;;;;;;;;;;;;;;;;;1033186;28;4048;-50
2022/06/22 01:17:35;;;;;;;;;;;;;;;;;;1033106;28;2860;-49
2022/06/22 01:18:31;;;;;;;;;;;;;;;;;;1038546;28;4027;-48
2022/06/22 01:19:17;;;;;;;;;;;;;;;;;;1035683;28;3828;-48
2022/06/22 01:19:50;;;;;;;;;;;;;;;;;;1037444;28;2813;-48
2022/06/22 01:20:24;;;;;;;;;;;;;;;;;;1031779;28;3736;-48
2022/06/22 01:21:03;;;;;;;;;;;;;;;;;;1032698;28;3906;-51
2022/06/22 01:21:37;;;;;;;;;;;;;;;;;;1032418;28;3229;-48
2022/06/22 01:22:10;;;;;;;;;;;;;;;;;;1031066;28;3825;-47
2022/06/22 01:22:59;;;;;;;;;;;;;;;;;;1031245;28;3783;-50
2022/06/22 01:23:41;;;;;;;;;;;;;;;;;;1031265;28;3644;-47
2022/06/22 01:24:31;;;;;;;;;;;;;;;;;;1032863;28;3789;-47
2022/06/22 01:25:20;;;;;;;;;;;;;;;;;;1033405;28;3978;-50
2022/06/22 01:26:05;;;;;;;;;;;;;;;;;;1033576;28;3965;-51
2022/06/22 01:26:42;;;;;;;;;;;;;;;;;;1032782;28;5019;-52
2022/06/22 01:27:30;;;;;;;;;;;;;;;;;;1033723;28;3890;-49
2022/06/22 01:28:01;;;;;;;;;;;;;;;;;;1033353;28;3912;-48
2022/06/22 01:28:31;;;;;;;;;;;;;;;;;;1034574;28;1664;-48
2022/06/22 01:29:13;;;;;;;;;;;;;;;;;;1033279;28;3769;-47
2022/06/22 01:29:52;;;;;;;;;;;;;;;;;;1033913;28;1724;-49
2022/06/22 01:30:32;;;;;;;;;;;;;;;;;;1031150;28;3835;-48
2022/06/22 01:31:03;;;;;;;;;;;;;;;;;;1033190;28;4275;-49
2022/06/22 01:31:34;;;;;;;;;;;;;;;;;;1033952;28;1914;-47
2022/06/22 01:32:06;;;;;;;;;;;;;;;;;;1031877;28;3814;-48
2022/06/22 01:32:37;;;;;;;;;;;;;;;;;;1028133;28;3312;-49
2022/06/22 01:33:13;;;;;;;;;;;;;;;;;;1029471;28;4194;-50
2022/06/22 01:33:46;;;;;;;;;;;;;;;;;;1032629;28;4093;-48
2022/06/22 01:34:17;;;;;;;;;;;;;;;;;;1032769;28;3983;-52
2022/06/22 01:34:48;;;;;;;;;;;;;;;;;;1034783;28;1592;-50
2022/06/22 01:35:20;;;;;;;;;;;;;;;;;;1033901;28;3902;-48
2022/06/22 01:35:56;;;;;;;;;;;;;;;;;;1034088;28;2864;-47
2022/06/22 01:36:31;;;;;;;;;;;;;;;;;;1031634;28;3950;-48
2022/06/22 01:37:04;;;;;;;;;;;;;;;;;;1031344;28;3942;-48
2022/06/22 01:37:34;;;;;;;;;;;;;;;;;;1033879;28;2862;-50
2022/06/22 01:38:18;;;;;;;;;;;;;;;;;;1032934;28;3868;-48
2022/06/22 01:38:49;;;;;;;;;;;;;;;;;;1033083;28;2982;-49
2022/06/22 01:39:19;;;;;;;;;;;;;;;;;;1033096;28;4236;-51
2022/06/22 01:39:49;;;;;;;;;;;;;;;;;;1034249;28;2475;-47
2022/06/22 01:40:21;;;;;;;;;;;;;;;;;;1032884;28;5150;-49
2022/06/22 01:40:52;;;;;;;;;;;;;;;;;;1034200;28;2831;-50
2022/06/22 01:41:28;;;;;;;;;;;;;;;;;;1032527;28;3793;-49
2022/06/22 01:42:01;;;;;;;;;;;;;;;;;;1032149;28;3811;-48
2022/06/22 01:42:34;;;;;;;;;;;;;;;;;;1033256;28;2412;-48
2022/06/22 01:43:07;;;;;;;;;;;;;;;;;;1033814;28;3858;-49
2022/06/22 01:43:45;;;;;;;;;;;;;;;;;;1034422;28;1627;-47
2022/06/22 01:44:22;;;;;;;;;;;;;;;;;;1034342;28;3781;-48
2022/06/22 01:44:58;;;;;;;;;;;;;;;;;;1033432;28;3752;-49
2022/06/22 01:45:47;;;;;;;;;;;;;;;;;;1031966;28;3708;-49
2022/06/22 01:46:26;;;;;;;;;;;;;;;;;;1032707;28;3937;-47
2022/06/22 01:47:08;;;;;;;;;;;;;;;;;;1033845;28;3902;-48
2022/06/22 01:47:42;;;;;;;;;;;;;;;;;;1033011;28;3050;-48
2022/06/22 01:48:15;;;;;;;;;;;;;;;;;;1033767;28;3809;-50
2022/06/22 01:48:51;;;;;;;;;;;;;;;;;;1032085;28;4152;-51
2022/06/22 01:49:22;;;;;;;;;;;;;;;;;;1033600;28;4198;-48
2022/06/22 01:49:55;;;;;;;;;;;;;;;;;;1034692;28;1573;-49
2022/06/22 01:50:25;;;;;;;;;;;;;;;;;;1033366;28;3901;-50
2022/06/22 01:50:59;;;;;;;;;;;;;;;;;;1031817;28;4253;-48
2022/06/22 01:51:35;;;;;;;;;;;;;;;;;;1032444;28;3691;-49
2022/06/22 01:52:08;;;;;;;;;;;;;;;;;;1031888;28;3813;-48
2022/06/22 01:52:47;;;;;;;;;;;;;;;;;;1032471;28;3725;-48
2022/06/22 01:53:24;;;;;;;;;;;;;;;;;;1033782;28;3827;-49
2022/06/22 01:54:21;;;;;;;;;;;;;;;;;;1033589;28;3798;-51
2022/06/22 01:54:55;;;;;;;;;;;;;;;;;;1030867;28;1624;-47
2022/06/22 01:55:34;;;;;;;;;;;;;;;;;;1032632;28;3850;-49
2022/06/22 01:56:10;;;;;;;;;;;;;;;;;;1039088;28;3914;-51
2022/06/22 01:56:47;;;;;;;;;;;;;;;;;;1039625;28;3378;-49
2022/06/22 01:57:33;;;;;;;;;;;;;;;;;;1040249;28;3892;-48
2022/06/22 01:58:19;;;;;;;;;;;;;;;;;;1037163;28;3831;-49
2022/06/22 01:58:58;;;;;;;;;;;;;;;;;;1044826;28;3588;-48
2022/06/22 01:59:41;;;;;;;;;;;;;;;;;;1044954;28;3750;-49
2022/06/22 02:00:14;;;;;;;;;;;;;;;;;;1040390;28;3971;-52
2022/06/22 02:00:49;;;;;;;;;;;;;;;;;;1036646;28;3375;-49
2022/06/22 02:01:29;;;;;;;;;;;;;;;;;;1034451;28;4200;-48
2022/06/22 02:02:21;;;;;;;;;;;;;;;;;;1037442;28;3807;-49
2022/06/22 02:02:58;;;;;;;;;;;;;;;;;;1040737;28;3169;-48
2022/06/22 02:03:38;;;;;;;;;;;;;;;;;;1042185;28;3835;-48
2022/06/22 02:04:09;;;;;;;;;;;;;;;;;;1038637;28;3803;-48
2022/06/22 02:04:48;;;;;;;;;;;;;;;;;;1039442;28;3729;-47
2022/06/22 02:05:28;;;;;;;;;;;;;;;;;;1039584;28;3898;-49
2022/06/22 02:07:44;;;;;;;;;;;;;;;;;;1042584;28;3882;-47
2022/06/22 02:07:53;;;;;;;;;;;;;;;;;;1041639;28;5148;-50
2022/06/22 02:08:31;;;;;;;;;;;;;;;;;;1040382;28;4136;-49
2022/06/22 02:09:07;;;;;;;;;;;;;;;;;;1041512;28;3821;-50
2022/06/22 02:09:58;;;;;;;;;;;;;;;;;;1041618;28;2036;-49
2022/06/22 02:10:37;;;;;;;;;;;;;;;;;;1040390;28;3902;-50
2022/06/22 02:11:09;;;;;;;;;;;;;;;;;;1038890;28;3869;-49
2022/06/22 02:11:43;;;;;;;;;;;;;;;;;;1045614;28;1699;-51
2022/06/22 02:12:20;;;;;;;;;;;;;;;;;;1045288;28;3792;-47
2022/06/22 02:12:59;;;;;;;;;;;;;;;;;;1044211;28;3304;-49
2022/06/22 02:13:29;;;;;;;;;;;;;;;;;;1042064;28;3669;-52
2022/06/22 02:14:03;;;;;;;;;;;;;;;;;;1040853;28;4241;-50
2022/06/22 02:14:34;;;;;;;;;;;;;;;;;;1040303;28;3879;-48
2022/06/22 02:15:07;;;;;;;;;;;;;;;;;;1039916;28;4005;-50
2022/06/22 02:15:39;;;;;;;;;;;;;;;;;;1037113;28;3073;-51
2022/06/22 02:16:13;;;;;;;;;;;;;;;;;;1036588;28;3871;-50
2022/06/22 02:16:52;;;;;;;;;;;;;;;;;;1037402;28;1575;-48
2022/06/22 02:17:24;;;;;;;;;;;;;;;;;;1037729;28;4252;-48
2022/06/22 02:18:02;;;;;;;;;;;;;;;;;;1041085;28;3807;-50
2022/06/22 02:18:47;;;;;;;;;;;;;;;;;;1037779;28;1578;-49
2022/06/22 02:19:18;;;;;;;;;;;;;;;;;;1038820;28;4247;-48
2022/06/22 02:20:07;;;;;;;;;;;;;;;;;;1040411;28;3183;-47
2022/06/22 02:20:38;;;;;;;;;;;;;;;;;;1040082;28;3999;-49
2022/06/22 02:21:22;;;;;;;;;;;;;;;;;;1037343;28;3900;-49
2022/06/22 02:21:53;;;;;;;;;;;;;;;;;;1037802;28;1995;-49
2022/06/22 02:22:24;;;;;;;;;;;;;;;;;;1038529;28;3735;-49
2022/06/22 02:22:56;;;;;;;;;;;;;;;;;;1040528;28;2068;-50
2022/06/22 02:23:30;;;;;;;;;;;;;;;;;;1039795;28;3631;-48
2022/06/22 02:24:09;;;;;;;;;;;;;;;;;;1038659;28;3923;-51
2022/06/22 02:24:41;;;;;;;;;;;;;;;;;;1041383;28;2926;-51
2022/06/22 02:25:12;;;;;;;;;;;;;;;;;;1040338;28;4285;-48
2022/06/22 02:25:45;;;;;;;;;;;;;;;;;;1042340;28;3997;-51
2022/06/22 02:26:18;;;;;;;;;;;;;;;;;;1040964;28;3947;-50
2022/06/22 02:26:51;;;;;;;;;;;;;;;;;;1041917;28;3524;-47
2022/06/22 02:27:23;;;;;;;;;;;;;;;;;;1039747;28;3765;-50
2022/06/22 02:27:53;;;;;;;;;;;;;;;;;;1040430;28;2065;-50
2022/06/22 02:28:24;;;;;;;;;;;;;;;;;;1041189;28;3808;-52
2022/06/22 02:28:54;;;;;;;;;;;;;;;;;;1041195;28;3212;-48
2022/06/22 02:29:27;;;;;;;;;;;;;;;;;;1040886;28;3924;-47
2022/06/22 02:29:59;;;;;;;;;;;;;;;;;;1040283;28;4342;-52
2022/06/22 02:30:29;;;;;;;;;;;;;;;;;;1041684;28;2871;-49
2022/06/22 02:31:01;;;;;;;;;;;;;;;;;;1040835;28;3848;-50
2022/06/22 02:31:32;;;;;;;;;;;;;;;;;;1041228;28;3266;-53
2022/06/22 02:32:04;;;;;;;;;;;;;;;;;;1035011;28;4316;-49
2022/06/22 02:32:37;;;;;;;;;;;;;;;;;;1036465;28;4020;-51
2022/06/22 02:33:08;;;;;;;;;;;;;;;;;;1035768;28;4297;-47
2022/06/22 02:33:40;;;;;;;;;;;;;;;;;;1038938;28;2032;-48
2022/06/22 02:34:10;;;;;;;;;;;;;;;;;;1038439;28;3855;-49
2022/06/22 02:34:42;;;;;;;;;;;;;;;;;;1041960;28;3728;-48
2022/06/22 02:35:13;;;;;;;;;;;;;;;;;;1040674;28;3887;-50
2022/06/22 02:35:43;;;;;;;;;;;;;;;;;;1042356;28;1701;-47
2022/06/22 02:36:14;;;;;;;;;;;;;;;;;;1040690;28;3776;-47
2022/06/22 02:36:45;;;;;;;;;;;;;;;;;;1042400;28;1675;-49
2022/06/22 02:37:17;;;;;;;;;;;;;;;;;;1036068;28;3832;-49
2022/06/22 02:37:53;;;;;;;;;;;;;;;;;;1035689;28;3029;-51
2022/06/22 02:38:23;;;;;;;;;;;;;;;;;;1036500;28;3812;-50
2022/06/22 02:38:56;;;;;;;;;;;;;;;;;;1034462;28;3445;-49
2022/06/22 02:39:27;;;;;;;;;;;;;;;;;;1035451;28;3854;-47
2022/06/22 02:40:03;;;;;;;;;;;;;;;;;;1036717;28;4191;-49
2022/06/22 02:44:29;;;;;;;;;;;;;;;;;;1038586;28;1996;-51
2022/06/22 02:44:42;;;;;;;;;;;;;;;;;;1040874;28;3698;-51
2022/06/22 02:45:12;;;;;;;;;;;;;;;;;;1041293;28;3879;-50
2022/06/22 02:45:43;;;;;;;;;;;;;;;;;;1041417;28;2329;-48
2022/06/22 02:46:16;;;;;;;;;;;;;;;;;;1041080;28;3886;-48
2022/06/22 02:46:47;;;;;;;;;;;;;;;;;;1037312;28;2961;-52
2022/06/22 02:47:36;;;;;;;;;;;;;;;;;;1036839;28;3798;-46
2022/06/22 02:48:12;;;;;;;;;;;;;;;;;;1035462;28;3882;-48
2022/06/22 02:48:45;;;;;;;;;;;;;;;;;;1041018;28;1636;-48
2022/06/22 02:49:27;;;;;;;;;;;;;;;;;;1035870;28;4246;-48
2022/06/22 02:50:10;;;;;;;;;;;;;;;;;;1035692;28;4218;-48
2022/06/22 02:50:47;;;;;;;;;;;;;;;;;;1037646;28;1720;-50
2022/06/22 02:51:26;;;;;;;;;;;;;;;;;;1041846;28;4403;-49
2022/06/22 02:51:58;;;;;;;;;;;;;;;;;;1040270;28;3815;-52
2022/06/22 02:52:33;;;;;;;;;;;;;;;;;;1040335;28;3206;-49
2022/06/22 02:53:14;;;;;;;;;;;;;;;;;;1042243;28;3855;-49
2022/06/22 02:53:45;;;;;;;;;;;;;;;;;;1042047;28;1634;-51
2022/06/22 02:54:22;;;;;;;;;;;;;;;;;;1040895;28;3766;-49
2022/06/22 02:54:55;;;;;;;;;;;;;;;;;;1040211;28;3810;-48
2022/06/22 02:55:27;;;;;;;;;;;;;;;;;;1040268;28;3992;-50
2022/06/22 02:55:57;;;;;;;;;;;;;;;;;;1041845;28;3791;-52
2022/06/22 02:56:31;;;;;;;;;;;;;;;;;;1039853;28;3162;-50
2022/06/22 02:57:14;;;;;;;;;;;;;;;;;;1040758;28;4232;-50
2022/06/22 02:57:57;;;;;;;;;;;;;;;;;;1042585;28;2977;-51
2022/06/22 02:58:36;;;;;;;;;;;;;;;;;;1033627;28;3866;-47
2022/06/22 02:59:14;;;;;;;;;;;;;;;;;;1031486;28;4239;-47
2022/06/22 02:59:45;;;;;;;;;;;;;;;;;;1034505;28;3185;-51
2022/06/22 03:00:17;;;;;;;;;;;;;;;;;;1032355;28;4099;-49
2022/06/22 03:00:47;;;;;;;;;;;;;;;;;;1033153;28;3615;-50
2022/06/22 03:01:20;;;;;;;;;;;;;;;;;;1032283;28;3804;-46
2022/06/22 03:01:50;;;;;;;;;;;;;;;;;;1033924;28;1918;-49
2022/06/22 03:02:21;;;;;;;;;;;;;;;;;;1031821;28;4157;-51
2022/06/22 03:03:06;;;;;;;;;;;;;;;;;;1032312;28;3324;-48
2022/06/22 03:03:38;;;;;;;;;;;;;;;;;;1032188;28;3840;-49
2022/06/22 03:04:12;;;;;;;;;;;;;;;;;;1031676;28;3872;-51
2022/06/22 03:04:42;;;;;;;;;;;;;;;;;;1033327;28;1701;-48
2022/06/22 03:05:13;;;;;;;;;;;;;;;;;;1034186;28;3801;-49
2022/06/22 03:05:44;;;;;;;;;;;;;;;;;;1033966;28;2048;-47
2022/06/22 03:06:16;;;;;;;;;;;;;;;;;;1033342;28;3810;-49
2022/06/22 03:06:48;;;;;;;;;;;;;;;;;;1032552;28;2662;-48
2022/06/22 03:07:19;;;;;;;;;;;;;;;;;;1028880;28;4202;-51
2022/06/22 03:07:51;;;;;;;;;;;;;;;;;;1028609;28;2691;-48
2022/06/22 03:08:23;;;;;;;;;;;;;;;;;;1028782;28;3763;-48
2022/06/22 03:08:53;;;;;;;;;;;;;;;;;;1031993;28;3520;-47
2022/06/22 03:09:26;;;;;;;;;;;;;;;;;;1033486;28;4205;-49
2022/06/22 03:09:56;;;;;;;;;;;;;;;;;;1040542;28;3829;-51
2022/06/22 03:10:41;;;;;;;;;;;;;;;;;;1040649;28;4033;-52
2022/06/22 03:11:12;;;;;;;;;;;;;;;;;;1039589;28;3833;-49
2022/06/22 03:11:44;;;;;;;;;;;;;;;;;;1037618;28;4023;-49
2022/06/22 03:12:14;;;;;;;;;;;;;;;;;;1030606;28;4240;-48
2022/06/22 03:12:45;;;;;;;;;;;;;;;;;;1033664;28;3010;-47
2022/06/22 03:13:17;;;;;;;;;;;;;;;;;;1032802;28;4235;-48
2022/06/22 03:13:51;;;;;;;;;;;;;;;;;;1034541;28;1646;-48
2022/06/22 03:14:28;;;;;;;;;;;;;;;;;;1032806;28;3747;-52
2022/06/22 03:15:02;;;;;;;;;;;;;;;;;;1031584;28;3797;-51
2022/06/22 03:15:35;;;;;;;;;;;;;;;;;;1032234;28;3740;-51
2022/06/22 03:16:07;;;;;;;;;;;;;;;;;;1033700;28;3942;-49
2022/06/22 03:16:38;;;;;;;;;;;;;;;;;;1033112;28;3274;-47
2022/06/22 03:17:13;;;;;;;;;;;;;;;;;;1031628;28;4359;-49
2022/06/22 03:17:44;;;;;;;;;;;;;;;;;;1030633;28;3810;-50
2022/06/22 03:18:24;;;;;;;;;;;;;;;;;;1031942;28;3799;-49
2022/06/22 03:18:56;;;;;;;;;;;;;;;;;;1034280;28;1614;-50
2022/06/22 03:19:28;;;;;;;;;;;;;;;;;;1032338;28;3720;-50
2022/06/22 03:20:04;;;;;;;;;;;;;;;;;;1041083;28;4264;-48
2022/06/22 03:20:39;;;;;;;;;;;;;;;;;;1038614;28;3782;-48
2022/06/22 03:21:12;;;;;;;;;;;;;;;;;;1039295;28;4030;-48
2022/06/22 03:21:42;;;;;;;;;;;;;;;;;;1036329;28;4086;-48
2022/06/22 03:22:16;;;;;;;;;;;;;;;;;;1032880;28;5311;-49
2022/06/22 03:22:49;;;;;;;;;;;;;;;;;;1033288;28;3947;-48
2022/06/22 03:23:26;;;;;;;;;;;;;;;;;;1033344;28;4172;-47
2022/06/22 03:24:15;;;;;;;;;;;;;;;;;;1033708;28;3890;-51
2022/06/22 03:24:58;;;;;;;;;;;;;;;;;;1029698;28;3547;-47
2022/06/22 03:25:41;;;;;;;;;;;;;;;;;;1033516;28;3999;-49
2022/06/22 03:26:19;;;;;;;;;;;;;;;;;;1033215;28;4227;-48
2022/06/22 03:26:53;;;;;;;;;;;;;;;;;;1034046;28;1711;-49
2022/06/22 03:27:26;;;;;;;;;;;;;;;;;;1033474;28;3747;-49
2022/06/22 03:28:02;;;;;;;;;;;;;;;;;;1034490;28;4805;-51
2022/06/22 03:28:37;;;;;;;;;;;;;;;;;;1037540;28;2727;-50
2022/06/22 03:29:13;;;;;;;;;;;;;;;;;;1033760;28;5483;-50
2022/06/22 03:29:47;;;;;;;;;;;;;;;;;;1035002;28;3518;-49
2022/06/22 03:30:19;;;;;;;;;;;;;;;;;;1030973;28;3892;-47
2022/06/22 03:30:59;;;;;;;;;;;;;;;;;;1033749;28;3189;-51
2022/06/22 03:31:41;;;;;;;;;;;;;;;;;;1033101;28;3759;-49
2022/06/22 03:32:17;;;;;;;;;;;;;;;;;;1033469;28;3848;-47
2022/06/22 03:32:48;;;;;;;;;;;;;;;;;;1032810;28;3083;-48
2022/06/22 03:33:30;;;;;;;;;;;;;;;;;;1031257;28;3904;-49
2022/06/22 03:34:10;;;;;;;;;;;;;;;;;;1033786;28;3935;-49
2022/06/22 03:34:42;;;;;;;;;;;;;;;;;;1033448;28;2309;-51
2022/06/22 03:35:18;;;;;;;;;;;;;;;;;;1032787;28;3878;-47
2022/06/22 03:35:51;;;;;;;;;;;;;;;;;;1032695;28;2972;-47
2022/06/22 03:36:30;;;;;;;;;;;;;;;;;;1032173;28;3779;-48
2022/06/22 03:37:13;;;;;;;;;;;;;;;;;;1032050;28;4408;-48
2022/06/22 03:37:47;;;;;;;;;;;;;;;;;;1031493;28;2714;-48
2022/06/22 03:38:28;;;;;;;;;;;;;;;;;;1031535;28;4261;-48
2022/06/22 03:39:04;;;;;;;;;;;;;;;;;;1031896;28;3891;-50
2022/06/22 03:39:36;;;;;;;;;;;;;;;;;;1030794;28;3175;-47
2022/06/22 03:40:15;;;;;;;;;;;;;;;;;;1031827;28;4082;-49
2022/06/22 03:40:50;;;;;;;;;;;;;;;;;;1032951;28;2584;-49
2022/06/22 03:41:24;;;;;;;;;;;;;;;;;;1032460;28;3883;-48
2022/06/22 03:42:15;;;;;;;;;;;;;;;;;;1032347;28;3841;-49
2022/06/22 03:42:52;;;;;;;;;;;;;;;;;;1033407;28;2619;-49
2022/06/22 03:43:39;;;;;;;;;;;;;;;;;;1032208;28;4066;-51
2022/06/22 03:44:19;;;;;;;;;;;;;;;;;;1030538;28;4053;-51
2022/06/22 03:44:54;;;;;;;;;;;;;;;;;;1033074;28;1448;-49
2022/06/22 03:45:28;;;;;;;;;;;;;;;;;;1030603;28;3880;-48
2022/06/22 03:46:08;;;;;;;;;;;;;;;;;;1030729;28;4535;-51
2022/06/22 03:46:42;;;;;;;;;;;;;;;;;;1035015;28;1389;-48
2022/06/22 03:47:24;;;;;;;;;;;;;;;;;;1033139;28;3878;-48
2022/06/22 03:48:00;;;;;;;;;;;;;;;;;;1032841;28;4205;-48
2022/06/22 03:48:42;;;;;;;;;;;;;;;;;;1032546;28;3648;-49
2022/06/22 03:49:16;;;;;;;;;;;;;;;;;;1032916;28;4241;-49
2022/06/22 03:49:53;;;;;;;;;;;;;;;;;;1033132;28;2958;-48
2022/06/22 03:50:45;;;;;;;;;;;;;;;;;;1032064;28;4103;-48
2022/06/22 03:51:21;;;;;;;;;;;;;;;;;;1032760;28;4064;-50
2022/06/22 03:52:13;;;;;;;;;;;;;;;;;;1034460;28;1588;-47
2022/06/22 03:52:43;;;;;;;;;;;;;;;;;;1030995;28;3922;-48
2022/06/22 03:53:32;;;;;;;;;;;;;;;;;;1035561;28;4272;-48
2022/06/22 03:54:09;;;;;;;;;;;;;;;;;;1034280;28;4577;-51
2022/06/22 03:54:39;;;;;;;;;;;;;;;;;;1038757;28;3850;-50
2022/06/22 03:55:18;;;;;;;;;;;;;;;;;;1041263;28;4374;-49
2022/06/22 03:55:50;;;;;;;;;;;;;;;;;;1036328;28;2774;-47
2022/06/22 03:56:24;;;;;;;;;;;;;;;;;;1034909;28;3859;-48
2022/06/22 03:56:57;;;;;;;;;;;;;;;;;;1033389;28;1846;-49
2022/06/22 03:57:31;;;;;;;;;;;;;;;;;;1032915;28;3787;-48
2022/06/22 03:58:09;;;;;;;;;;;;;;;;;;1032828;28;3862;-47
2022/06/22 03:58:47;;;;;;;;;;;;;;;;;;1040321;28;3293;-49
2022/06/22 03:59:24;;;;;;;;;;;;;;;;;;1040461;28;3733;-49
2022/06/22 03:59:56;;;;;;;;;;;;;;;;;;1039709;28;3824;-49
2022/06/22 04:00:27;;;;;;;;;;;;;;;;;;1041527;28;2196;-49
2022/06/22 04:00:58;;;;;;;;;;;;;;;;;;1041223;28;3829;-49
2022/06/22 04:01:29;;;;;;;;;;;;;;;;;;1039262;28;3221;-48
2022/06/22 04:01:59;;;;;;;;;;;;;;;;;;1039838;28;4222;-47
2022/06/22 04:02:30;;;;;;;;;;;;;;;;;;1040571;28;2762;-50
2022/06/22 04:03:01;;;;;;;;;;;;;;;;;;1039050;28;4417;-49
2022/06/22 04:03:32;;;;;;;;;;;;;;;;;;1036919;28;3619;-50
2022/06/22 04:04:02;;;;;;;;;;;;;;;;;;1037468;28;4249;-48
2022/06/22 04:04:33;;;;;;;;;;;;;;;;;;1035759;28;3050;-50
2022/06/22 04:05:04;;;;;;;;;;;;;;;;;;1034613;28;3794;-47
2022/06/22 04:05:45;;;;;;;;;;;;;;;;;;1038622;28;4514;-48
2022/06/22 04:06:19;;;;;;;;;;;;;;;;;;1041382;28;4221;-50
2022/06/22 04:06:52;;;;;;;;;;;;;;;;;;1041676;28;1563;-52
2022/06/22 04:07:23;;;;;;;;;;;;;;;;;;1038966;28;3764;-53
2022/06/22 04:07:54;;;;;;;;;;;;;;;;;;1040243;28;3128;-49
2022/06/22 04:08:26;;;;;;;;;;;;;;;;;;1041517;28;3883;-48
2022/06/22 04:08:58;;;;;;;;;;;;;;;;;;1039981;28;3931;-47
2022/06/22 04:09:28;;;;;;;;;;;;;;;;;;1040017;28;3401;-55
2022/06/22 04:09:58;;;;;;;;;;;;;;;;;;1041226;28;3891;-49
2022/06/22 04:10:32;;;;;;;;;;;;;;;;;;1036157;28;3118;-50
2022/06/22 04:11:05;;;;;;;;;;;;;;;;;;1035889;28;4249;-49
2022/06/22 04:11:40;;;;;;;;;;;;;;;;;;1037413;28;3522;-53
2022/06/22 04:12:16;;;;;;;;;;;;;;;;;;1041305;28;4013;-50
2022/06/22 04:12:48;;;;;;;;;;;;;;;;;;1043339;28;3684;-48
2022/06/22 04:13:22;;;;;;;;;;;;;;;;;;1040399;28;4526;-49